Salem, Salem Airport (VOSM)

NameSalem Airport
CitySalem
CountryIndia
ICAOVOSM
IATASXV
Altitude307 m
CoordinatesGoogle Map
Live Air TrafficLiveATC.net
METARVOSM 160900Z 04007KT 6000 SCT020 SCT025 BKN080 26/22 Q1010 NOSIG
2018-11-16 09:00:00 Wind: North-Northeast (40°) 3.6 m/s - Visibility: 6000 m - Temperature: 26 °C - Dew point: 22 °C - Humidity: 78.7% - Pressure: 1010 hPa
Statistics

The table below shows the detailed information of all flights to/from Salem, Salem Airport (VOSM).